Time;durP1;ratioP1;P1;durP2;ratioP2;P2;SDS_P1;SDS_P2;PMS_P1;PMS_P2;Temp;Humidity;BMP_temperature;BMP_pressure;BME280_temperature;BME280_humidity;BME280_pressure;Samples;Min_cycle;Max_cycle;Signal;HPM_P1;HPM_P2
2021/10/17 00:01:39;;;;;;;213.75;195.15;;;;;;;8.36;100.00;101529.06;4992528;28;20128;-76
2021/10/17 00:04:06;;;;;;;202.00;184.65;;;;;;;8.40;100.00;101531.19;4992653;28;20053;-75
2021/10/17 00:06:34;;;;;;;187.95;171.32;;;;;;;8.33;100.00;101521.44;4992358;28;20476;-76
2021/10/17 00:09:00;;;;;;;204.65;187.25;;;;;;;8.40;100.00;101531.19;4989423;28;20487;-75
2021/10/17 00:11:27;;;;;;;206.75;189.10;;;;;;;8.40;100.00;101531.19;4992271;28;20054;-76
2021/10/17 00:13:54;;;;;;;220.88;201.45;;;;;;;8.37;100.00;101530.69;4992279;28;20058;-76
2021/10/17 00:16:21;;;;;;;192.07;174.48;;;;;;;8.37;100.00;101528.88;4993348;28;20050;-76
2021/10/17 00:18:48;;;;;;;210.75;192.85;;;;;;;8.39;100.00;101534.84;4992515;28;20104;-76
2021/10/17 00:21:14;;;;;;;234.90;215.30;;;;;;;8.39;100.00;101526.09;4992075;28;20058;-75
2021/10/17 00:23:43;;;;;;;223.65;204.32;;;;;;;8.39;100.00;101531.38;4992725;28;20120;-75
2021/10/17 00:26:09;;;;;;;224.15;205.23;;;;;;;8.41;100.00;101524.06;4992342;28;20043;-75
2021/10/17 00:28:36;;;;;;;211.77;193.18;;;;;;;8.44;100.00;101529.88;4992465;28;20501;-77
2021/10/17 00:31:03;;;;;;;219.75;200.82;;;;;;;8.36;100.00;101531.69;4992916;28;20475;-76
2021/10/17 00:33:30;;;;;;;219.18;201.00;;;;;;;8.40;100.00;101525.09;4991896;28;20125;-76
2021/10/17 00:35:57;;;;;;;209.98;191.73;;;;;;;8.34;100.00;101526.56;4992584;28;20537;-74
2021/10/17 00:38:23;;;;;;;190.20;171.98;;;;;;;8.43;100.00;101530.03;4991050;28;20118;-74
2021/10/17 00:40:52;;;;;;;217.98;197.93;;;;;;;8.47;100.00;101533.97;4991825;28;20494;-75
2021/10/17 00:43:19;;;;;;;234.75;213.80;;;;;;;8.44;100.00;101527.22;4991758;28;20061;-75
2021/10/17 00:45:46;;;;;;;203.27;184.80;;;;;;;8.43;100.00;101528.22;4992931;28;20046;-76
2021/10/17 00:48:12;;;;;;;181.82;163.98;;;;;;;8.38;100.00;101527.91;4992358;28;20058;-76
2021/10/17 00:50:39;;;;;;;211.85;192.05;;;;;;;8.39;100.00;101526.91;4989898;28;20081;-76
2021/10/17 00:53:06;;;;;;;228.10;207.20;;;;;;;8.44;100.00;101529.03;4988061;28;20050;-76
2021/10/17 00:55:33;;;;;;;243.05;221.77;;;;;;;8.36;100.00;101534.34;4991424;28;20047;-74
2021/10/17 00:58:01;;;;;;;221.88;202.15;;;;;;;8.43;100.00;101536.16;4992822;28;20050;-76
2021/10/17 01:00:29;;;;;;;224.45;203.38;;;;;;;8.45;100.00;101534.16;4991447;28;20145;-75
2021/10/17 01:02:55;;;;;;;223.85;202.43;;;;;;;8.46;100.00;101538.44;4991454;28;20106;-76
2021/10/17 01:05:22;;;;;;;220.98;200.48;;;;;;;8.43;100.00;101533.50;4991324;28;20050;-75
2021/10/17 01:07:49;;;;;;;200.13;181.85;;;;;;;8.45;100.00;101534.16;4991986;28;20538;-75
2021/10/17 01:10:17;;;;;;;229.23;208.85;;;;;;;8.48;100.00;101530.34;4991970;28;20061;-75
2021/10/17 01:12:44;;;;;;;224.77;204.32;;;;;;;8.39;100.00;101520.81;4990996;28;20050;-76
2021/10/17 01:15:12;;;;;;;215.32;195.27;;;;;;;8.38;100.00;101527.91;4991275;28;20050;-74
2021/10/17 01:17:39;;;;;;;229.38;208.48;;;;;;;8.37;100.00;101528.03;4991086;28;20050;-75
2021/10/17 01:20:08;;;;;;;240.95;219.23;;;;;;;8.37;100.00;101518.28;4990881;28;20062;-76
2021/10/17 01:22:35;;;;;;;223.70;203.48;;;;;;;8.34;100.00;101523.09;4991635;28;20050;-74
2021/10/17 01:25:03;;;;;;;238.48;217.25;;;;;;;8.32;100.00;101525.06;4990956;28;20050;-74
2021/10/17 01:27:30;;;;;;;239.07;217.65;;;;;;;8.34;100.00;101526.56;4990827;28;20451;-75
2021/10/17 01:29:56;;;;;;;243.52;222.00;;;;;;;8.39;100.00;101526.09;4991686;28;20054;-75
2021/10/17 01:32:23;;;;;;;254.82;232.93;;;;;;;8.37;100.00;101528.03;4991817;28;20483;-75
2021/10/17 01:34:50;;;;;;;261.10;238.77;;;;;;;8.38;100.00;101527.91;4991149;28;20054;-75
2021/10/17 01:37:18;;;;;;;255.98;234.48;;;;;;;8.47;100.00;101537.47;4989989;28;20058;-74
2021/10/17 01:39:44;;;;;;;237.85;216.77;;;;;;;8.49;100.00;101532.81;4990328;28;20054;-74
2021/10/17 01:42:11;;;;;;;227.32;207.32;;;;;;;8.49;100.00;101534.66;4990268;28;20058;-76
2021/10/17 01:44:38;;;;;;;232.05;212.07;;;;;;;8.44;100.00;101531.69;4990818;28;20046;-74
2021/10/17 01:47:07;;;;;;;243.07;222.38;;;;;;;8.36;100.00;101537.00;4991751;28;20494;-75
2021/10/17 01:49:34;;;;;;;245.25;224.25;;;;;;;8.39;100.00;101534.03;4990693;28;20046;-75
2021/10/17 01:52:01;;;;;;;236.13;215.95;;;;;;;8.24;100.00;101529.41;4987019;28;20053;-74
2021/10/17 01:54:30;;;;;;;256.00;234.30;;;;;;;8.25;100.00;101533.69;4990781;28;20046;-74
2021/10/17 01:56:56;;;;;;;271.55;248.18;;;;;;;8.15;100.00;101535.72;4990619;28;20056;-75
2021/10/17 01:59:23;;;;;;;264.23;241.68;;;;;;;8.33;100.00;101532.03;4990936;28;20464;-75
2021/10/17 02:01:50;;;;;;;264.52;242.18;;;;;;;8.29;100.00;101530.72;5110878;23;20054;-75
2021/10/17 02:04:17;;;;;;;276.55;253.00;;;;;;;8.37;100.00;101536.81;5006858;28;20111;-75
2021/10/17 02:06:43;;;;;;;255.23;233.07;;;;;;;8.39;100.00;101534.03;5000167;28;20042;-76
2021/10/17 02:09:10;;;;;;;274.70;251.27;;;;;;;8.41;100.00;101537.31;4993619;28;20486;-75
2021/10/17 02:11:38;;;;;;;262.92;240.40;;;;;;;8.54;100.00;101539.44;5003486;28;20497;-75
2021/10/17 02:14:06;;;;;;;256.38;234.05;;;;;;;8.47;100.00;101540.13;4999529;28;20050;-75
2021/10/17 02:16:33;;;;;;;274.58;249.25;;;;;;;8.49;100.00;101540.75;5003529;28;20042;-76
2021/10/17 02:18:59;;;;;;;268.67;245.65;;;;;;;8.39;100.00;101534.84;4998362;28;20475;-75
2021/10/17 02:21:26;;;;;;;275.23;251.38;;;;;;;8.49;100.00;101534.66;4998265;28;20050;-74
2021/10/17 02:23:53;;;;;;;283.15;257.77;;;;;;;8.54;100.00;101550.84;4997093;28;20049;-75
2021/10/17 02:26:20;;;;;;;262.75;239.65;;;;;;;8.51;100.00;101537.94;4997366;28;20046;-75
2021/10/17 02:28:48;;;;;;;269.33;246.77;;;;;;;8.58;100.00;101540.72;5003061;28;20460;-76
2021/10/17 02:31:14;;;;;;;237.50;217.45;;;;;;;8.60;100.00;101546.69;4998718;28;20487;-74
2021/10/17 02:33:41;;;;;;;240.60;219.85;;;;;;;8.38;100.00;101542.91;5000957;28;20082;-75
2021/10/17 02:36:08;;;;;;;281.15;257.52;;;;;;;8.56;100.00;101548.84;5007362;28;20045;-75
2021/10/17 02:38:35;;;;;;;256.10;234.10;;;;;;;8.62;100.00;101550.81;5012273;28;20046;-76
2021/10/17 02:41:01;;;;;;;267.05;244.18;;;;;;;8.64;100.00;101550.63;5006142;28;20049;-75
2021/10/17 02:43:28;;;;;;;277.35;255.73;;;;;;;8.46;100.00;101558.81;5005643;28;21312;-75
2021/10/17 02:45:56;;;;;;;240.75;219.52;;;;;;;8.53;100.00;101556.31;5002250;28;20050;-75
2021/10/17 02:48:23;;;;;;;257.52;236.35;;;;;;;8.57;100.00;101560.28;5005250;28;20047;-76
2021/10/17 02:50:50;;;;;;;241.05;219.98;;;;;;;8.45;100.00;101563.28;5006183;28;20108;-75
2021/10/17 02:53:16;;;;;;;294.67;270.00;;;;;;;8.55;100.00;101565.72;4999890;28;20492;-75
2021/10/17 02:55:43;;;;;;;275.80;253.35;;;;;;;8.51;100.00;101558.31;5001148;28;20050;-76
2021/10/17 02:58:10;;;;;;;254.77;233.48;;;;;;;8.51;100.00;101561.78;5004162;28;20053;-76
2021/10/17 03:00:37;;;;;;;248.82;227.48;;;;;;;8.48;100.00;101557.66;5005649;28;20132;-75
2021/10/17 03:03:05;;;;;;;242.88;221.20;;;;;;;8.57;100.00;101563.75;5005716;28;20057;-76
2021/10/17 03:05:32;;;;;;;217.35;198.05;;;;;;;8.58;100.00;101564.56;5000997;28;20486;-75
2021/10/17 03:07:59;;;;;;;245.98;225.23;;;;;;;8.39;100.00;101563.97;5000702;28;20046;-75
2021/10/17 03:10:25;;;;;;;244.55;224.13;;;;;;;8.57;100.00;101565.56;5009427;28;20046;-75
2021/10/17 03:12:52;;;;;;;251.48;229.50;;;;;;;8.61;100.00;101567.69;5003986;28;20128;-76
2021/10/17 03:15:19;;;;;;;213.55;194.27;;;;;;;8.64;100.00;101570.00;5006495;28;20046;-75
2021/10/17 03:17:47;;;;;;;241.00;219.73;;;;;;;8.66;100.00;101575.13;5009302;28;20039;-74
2021/10/17 03:20:15;;;;;;;261.52;239.00;;;;;;;8.38;100.00;101569.41;5000059;28;20410;-76
2021/10/17 03:22:42;;;;;;;260.02;237.35;;;;;;;8.32;100.00;101572.72;4999682;28;20054;-75
2021/10/17 03:25:09;;;;;;;249.68;227.27;;;;;;;8.23;100.00;101572.75;5007631;28;20050;-75
2021/10/17 03:27:36;;;;;;;250.98;228.82;;;;;;;8.33;100.00;101577.88;5009667;28;20438;-75
2021/10/17 03:30:04;;;;;;;257.08;233.77;;;;;;;8.29;100.00;101581.00;5008007;28;20050;-75
2021/10/17 03:32:30;;;;;;;256.92;234.02;;;;;;;8.32;100.00;101573.56;5013111;28;20042;-75
2021/10/17 03:34:57;;;;;;;256.50;233.88;;;;;;;8.40;100.00;101573.56;5005071;28;20511;-75
2021/10/17 03:37:25;;;;;;;229.15;208.20;;;;;;;8.37;100.00;101579.16;5010303;28;20061;-75
2021/10/17 03:39:52;;;;;;;242.52;220.35;;;;;;;8.35;100.00;101575.88;5006980;28;20564;-74
2021/10/17 03:42:19;;;;;;;256.02;232.80;;;;;;;8.38;100.00;101583.50;5001274;28;20046;-75
2021/10/17 03:44:45;;;;;;;269.38;246.10;;;;;;;8.36;100.00;101582.00;5007152;28;20046;-76
2021/10/17 03:47:12;;;;;;;263.88;240.18;;;;;;;8.42;100.00;101576.03;5006019;28;20050;-75
2021/10/17 03:49:40;;;;;;;262.02;238.93;;;;;;;8.39;100.00;101584.34;5002645;28;20398;-75
2021/10/17 03:52:07;;;;;;;271.15;247.43;;;;;;;8.31;100.00;101579.84;4999307;28;20050;-75
2021/10/17 03:54:35;;;;;;;255.85;232.57;;;;;;;8.34;100.00;101581.31;5004992;28;20400;-76
2021/10/17 03:57:02;;;;;;;266.67;243.20;;;;;;;8.46;100.00;101578.16;5005941;28;20046;-77
2021/10/17 03:59:28;;;;;;;273.17;249.23;;;;;;;8.43;100.00;101575.88;5005315;28;20123;-77
2021/10/17 04:01:55;;;;;;;233.20;212.07;;;;;;;8.48;100.00;101576.19;4999156;28;20054;-75
2021/10/17 04:04:22;;;;;;;232.48;211.32;;;;;;;8.44;100.00;101584.63;5000117;28;20536;-76
2021/10/17 04:06:48;;;;;;;232.75;212.10;;;;;;;8.59;100.00;101582.91;5006681;28;20050;-77
2021/10/17 04:09:15;;;;;;;245.77;224.68;;;;;;;8.50;100.00;101586.59;5002222;28;20471;-76
2021/10/17 04:11:46;;;;;;;241.38;219.50;;;;;;;8.61;100.00;101580.94;4999421;28;20042;-75
2021/10/17 04:14:13;;;;;;;250.68;228.10;;;;;;;8.60;100.00;101581.13;5002945;28;20135;-78
2021/10/17 04:16:40;;;;;;;245.55;223.57;;;;;;;8.63;100.00;101586.06;5006304;28;20112;-75
2021/10/17 04:19:06;;;;;;;256.52;233.48;;;;;;;8.64;100.00;101591.19;5005947;28;20463;-76
2021/10/17 04:21:33;;;;;;;265.25;241.50;;;;;;;8.69;100.00;101578.25;5003499;28;20054;-76
2021/10/17 04:24:00;;;;;;;239.02;217.50;;;;;;;8.66;100.00;101583.06;5004519;28;20457;-75
2021/10/17 04:26:27;;;;;;;272.05;247.98;;;;;;;8.54;100.00;101582.63;4998859;28;20459;-76
2021/10/17 04:28:55;;;;;;;262.50;238.35;;;;;;;8.58;100.00;101591.88;4996679;28;20467;-76
2021/10/17 04:31:21;;;;;;;249.45;227.15;;;;;;;8.60;100.00;101589.06;5004204;28;20109;-76
2021/10/17 04:33:48;;;;;;;234.90;213.60;;;;;;;8.65;100.00;101589.34;5006881;28;20478;-76
2021/10/17 04:36:15;;;;;;;253.60;231.27;;;;;;;8.66;100.00;101594.50;4999870;28;20112;-76
2021/10/17 04:38:41;;;;;;;272.63;248.00;;;;;;;8.49;100.00;101584.94;4999361;28;20053;-75
2021/10/17 04:41:08;;;;;;;257.08;234.07;;;;;;;8.60;100.00;101595.19;4997834;28;20107;-76
2021/10/17 04:43:36;;;;;;;247.93;225.63;;;;;;;8.53;100.00;101594.19;4996302;28;20609;-75
2021/10/17 04:46:04;;;;;;;238.68;216.93;;;;;;;8.64;100.00;101595.66;5005808;28;20054;-75
2021/10/17 04:48:30;;;;;;;218.80;198.60;;;;;;;8.67;100.00;101600.59;5002189;28;20108;-76
2021/10/17 04:50:57;;;;;;;235.82;214.68;;;;;;;8.55;100.00;101594.03;5000051;28;20506;-76
2021/10/17 04:53:24;;;;;;;233.05;212.32;;;;;;;8.55;100.00;101605.44;4998533;28;20498;-75
2021/10/17 04:55:51;;;;;;;241.23;220.10;;;;;;;8.59;100.00;101601.44;5005211;28;20049;-76
2021/10/17 04:58:17;;;;;;;226.18;206.18;;;;;;;8.53;100.00;101607.44;5006380;28;20046;-75
2021/10/17 05:00:44;;;;;;;227.88;207.13;;;;;;;8.45;100.00;101610.13;4999977;28;20058;-76
2021/10/17 05:03:12;;;;;;;243.50;222.02;;;;;;;8.54;100.00;101610.94;4997567;28;20053;-76
2021/10/17 05:05:41;;;;;;;253.57;230.95;;;;;;;8.55;100.00;101608.09;5004505;28;20058;-76
2021/10/17 05:08:08;;;;;;;232.38;210.93;;;;;;;8.47;100.00;101611.59;5000313;28;20050;-76
2021/10/17 05:10:35;;;;;;;242.98;220.73;;;;;;;8.59;100.00;101617.34;4995545;28;20050;-77
2021/10/17 05:13:02;;;;;;;238.63;217.10;;;;;;;8.63;100.00;101617.84;5002792;28;20533;-77
2021/10/17 05:15:28;;;;;;;237.55;215.65;;;;;;;8.66;100.00;101620.16;5000656;28;20054;-76
2021/10/17 05:17:55;;;;;;;251.75;228.23;;;;;;;8.63;100.00;101616.03;5002439;28;20498;-76
2021/10/17 05:20:23;;;;;;;240.95;218.13;;;;;;;8.64;100.00;101622.13;4999797;28;20108;-76
2021/10/17 05:22:50;;;;;;;239.27;217.57;;;;;;;8.71;100.00;101625.75;5001007;28;20104;-75
2021/10/17 05:25:17;;;;;;;237.02;215.43;;;;;;;8.76;100.00;101625.25;5003893;28;20119;-76
2021/10/17 05:27:43;;;;;;;239.95;217.15;;;;;;;8.76;100.00;101630.53;5001861;28;20471;-76
2021/10/17 05:30:10;;;;;;;210.43;190.10;;;;;;;8.85;100.00;101632.16;4997783;28;20098;-76
2021/10/17 05:32:37;;;;;;;233.32;211.77;;;;;;;8.88;100.00;101627.34;5001038;28;20058;-76
2021/10/17 05:35:05;;;;;;;247.32;224.40;;;;;;;8.87;100.00;101633.66;5001604;28;20116;-74
2021/10/17 05:37:33;;;;;;;247.18;225.13;;;;;;;8.85;100.00;101640.94;4997833;28;20116;-76
2021/10/17 05:39:59;;;;;;;239.57;216.82;;;;;;;8.87;100.00;101638.94;4999859;28;20058;-75
2021/10/17 05:42:26;;;;;;;247.50;224.70;;;;;;;8.89;100.00;101639.56;5003073;28;20041;-77
2021/10/17 05:44:53;;;;;;;239.18;217.05;;;;;;;8.99;100.00;101649.16;4998503;28;20121;-78
2021/10/17 05:47:21;;;;;;;227.68;206.43;;;;;;;9.05;100.00;101648.47;4996573;28;20117;-75
2021/10/17 05:49:48;;;;;;;258.70;235.70;;;;;;;9.12;100.00;101652.06;5004771;28;20450;-76
2021/10/17 05:52:15;;;;;;;251.00;226.63;;;;;;;9.10;100.00;101649.59;5002583;28;20042;-76
2021/10/17 05:54:43;;;;;;;251.57;227.75;;;;;;;8.92;100.00;101656.97;5004487;28;20112;-76
2021/10/17 05:57:09;;;;;;;251.13;227.48;;;;;;;8.99;100.00;101663.25;5006479;28;20532;-76
2021/10/17 05:59:36;;;;;;;234.63;212.48;;;;;;;9.04;100.00;101660.06;4996224;28;20085;-74
2021/10/17 06:02:03;;;;;;;220.80;199.38;;;;;;;8.85;100.00;101661.31;5001770;28;20437;-75
2021/10/17 06:04:29;;;;;;;236.13;214.15;;;;;;;8.99;100.00;101665.88;5001859;28;20119;-76
2021/10/17 06:06:56;;;;;;;246.82;224.18;;;;;;;9.06;100.00;101673.97;4999069;28;20120;-76
2021/10/17 06:09:23;;;;;;;242.13;219.80;;;;;;;9.05;100.00;101673.16;5000411;28;20482;-76
2021/10/17 06:11:51;;;;;;;224.05;203.98;;;;;;;9.14;100.00;101671.28;4999027;28;20481;-75
2021/10/17 06:14:18;;;;;;;232.00;211.88;;;;;;;9.12;100.00;101679.41;4997595;28;20137;-75
2021/10/17 06:16:45;;;;;;;221.02;200.70;;;;;;;9.20;100.00;101683.84;4999962;28;20480;-75
2021/10/17 06:19:12;;;;;;;240.70;219.68;;;;;;;9.39;100.00;101693.19;4997527;28;20057;-76
2021/10/17 06:21:38;;;;;;;236.30;214.27;;;;;;;9.44;100.00;101687.34;4998107;28;20108;-75
2021/10/17 06:24:05;;;;;;;233.20;211.57;;;;;;;9.25;100.00;101697.38;5001377;28;20050;-75
2021/10/17 06:26:32;;;;;;;228.15;207.65;;;;;;;9.37;100.00;101690.69;5002110;28;20046;-75
2021/10/17 06:29:00;;;;;;;223.20;203.70;;;;;;;9.27;100.00;101703.34;4998899;28;20549;-76
2021/10/17 06:31:27;;;;;;;197.15;178.40;;;;;;;9.48;100.00;101696.63;5000713;28;20430;-75
2021/10/17 06:33:53;;;;;;;199.00;180.30;;;;;;;9.49;100.00;101701.75;4997632;28;20054;-75
2021/10/17 06:36:20;;;;;;;214.75;194.80;;;;;;;9.54;100.00;101699.41;4999250;28;20053;-75
2021/10/17 06:38:47;;;;;;;212.85;193.57;;;;;;;9.51;100.00;101702.41;5003121;28;20046;-75
2021/10/17 06:41:13;;;;;;;211.02;191.60;;;;;;;9.45;100.00;101699.63;4995861;28;20478;-76
2021/10/17 06:43:40;;;;;;;206.27;186.32;;;;;;;9.60;100.00;101705.84;5003654;28;20127;-76
2021/10/17 06:46:09;;;;;;;230.48;208.52;;;;;;;9.68;100.00;101708.41;5000846;28;20482;-76
2021/10/17 06:48:35;;;;;;;237.93;215.15;;;;;;;9.75;100.00;101711.22;5004985;28;20042;-76
2021/10/17 06:51:02;;;;;;;253.48;229.40;;;;;;;9.72;100.00;101712.38;4998267;28;20478;-76
2021/10/17 06:53:29;;;;;;;245.40;222.02;;;;;;;9.66;100.00;101718.41;4996002;28;20050;-75
2021/10/17 06:55:56;;;;;;;248.30;225.60;;;;;;;9.64;100.00;101718.56;4999800;28;20050;-76
2021/10/17 06:58:22;;;;;;;230.48;208.35;;;;;;;9.66;100.00;101712.28;5004578;28;20066;-75
2021/10/17 07:00:49;;;;;;;234.45;212.38;;;;;;;9.67;100.00;101721.88;5004944;28;20070;-76
2021/10/17 07:03:17;;;;;;;227.48;206.55;;;;;;;9.43;100.00;101712.22;5008080;28;20112;-76
2021/10/17 07:05:44;;;;;;;230.52;208.85;;;;;;;9.70;100.00;101714.38;5005518;28;20393;-76
2021/10/17 07:08:10;;;;;;;234.32;211.50;;;;;;;9.79;100.00;101713.31;5004707;28;20054;-76
2021/10/17 07:10:37;;;;;;;233.25;211.52;;;;;;;9.58;100.00;101724.56;4996218;28;20081;-76
2021/10/17 07:13:04;;;;;;;243.65;221.25;;;;;;;9.63;100.00;101721.41;4998457;28;20054;-76
2021/10/17 07:15:31;;;;;;;228.63;207.15;;;;;;;9.54;100.00;101725.09;5000191;28;20049;-75
2021/10/17 07:17:57;;;;;;;269.42;245.52;;;;;;;10.89;100.00;101720.84;4999326;28;20376;-76
2021/10/17 07:20:26;;;;;;;254.20;231.10;;;;;;;10.56;100.00;101717.72;5000806;28;20047;-76
2021/10/17 07:22:56;;;;;;;236.80;216.30;;;;;;;9.95;100.00;101722.16;4996628;28;20466;-76
2021/10/17 07:25:23;;;;;;;243.82;222.05;;;;;;;9.95;100.00;101725.63;5008822;28;20474;-77
2021/10/17 07:27:52;;;;;;;217.25;197.68;;;;;;;9.86;100.00;101724.06;5004716;28;20469;-77
2021/10/17 07:30:19;;;;;;;225.60;205.27;;;;;;;10.09;100.00;101724.06;5000799;28;20042;-76
2021/10/17 07:32:46;;;;;;;259.52;237.70;;;;;;;10.94;100.00;101728.25;5008379;28;20437;-78
2021/10/17 07:35:13;;;;;;;243.05;222.27;;;;;;;10.19;100.00;101729.94;5001181;28;20490;-75
2021/10/17 07:37:41;;;;;;;230.13;210.52;;;;;;;10.18;100.00;101730.13;5000366;28;20038;-76
2021/10/17 07:40:08;;;;;;;246.40;225.30;;;;;;;10.28;100.00;101734.19;5007368;28;20054;-75
2021/10/17 07:42:35;;;;;;;232.60;212.43;;;;;;;10.20;100.00;101733.44;5008762;28;20139;-77
2021/10/17 07:45:02;;;;;;;222.05;202.48;;;;;;;10.01;100.00;101743.50;4999494;28;20144;-76
2021/10/17 07:47:32;;;;;;;206.23;187.40;;;;;;;9.79;100.00;101737.19;5005769;28;20394;-76
2021/10/17 07:49:59;;;;;;;235.98;215.85;;;;;;;9.97;100.00;101744.88;5001067;28;20580;-76
2021/10/17 07:52:25;;;;;;;235.55;216.05;;;;;;;9.90;100.00;101748.44;5002361;28;20049;-77
2021/10/17 07:54:53;;;;;;;225.95;207.05;;;;;;;9.89;100.00;101749.41;5004691;28;20049;-77
2021/10/17 07:57:20;;;;;;;214.52;196.43;;;;;;;10.00;100.00;101749.84;5002462;28;20116;-76
2021/10/17 07:59:47;;;;;;;212.85;194.40;;;;;;;9.98;100.00;101751.00;4997374;28;20047;-77
2021/10/17 08:02:13;;;;;;;208.25;189.40;;;;;;;10.11;100.00;101747.78;5003452;28;20070;-77
2021/10/17 08:04:40;;;;;;;227.63;207.50;;;;;;;10.16;100.00;101753.38;5005585;28;20119;-77
2021/10/17 08:07:07;;;;;;;226.20;206.23;;;;;;;9.93;100.00;101756.03;5004227;28;20061;-77
2021/10/17 08:09:34;;;;;;;190.70;173.27;;;;;;;9.75;100.00;101757.13;5002233;28;20046;-77
2021/10/17 08:12:02;;;;;;;211.60;193.10;;;;;;;9.75;100.00;101759.78;5005153;28;20054;-77
2021/10/17 08:14:29;;;;;;;220.02;200.88;;;;;;;9.81;100.00;101761.75;5009241;28;20046;-77
2021/10/17 08:16:56;;;;;;;220.95;201.07;;;;;;;9.79;100.00;101761.06;5000087;28;20498;-76
2021/10/17 08:19:22;;;;;;;225.38;205.18;;;;;;;9.82;100.00;101765.22;5003188;28;20050;-77
2021/10/17 08:21:49;;;;;;;251.38;226.38;;;;;;;10.16;100.00;101762.16;5003200;28;20046;-76
2021/10/17 08:24:16;;;;;;;235.73;212.77;;;;;;;10.05;100.00;101765.25;4999598;28;20108;-76
2021/10/17 08:26:43;;;;;;;227.95;205.73;;;;;;;9.99;100.00;101763.28;5007949;28;20128;-77
2021/10/17 08:29:12;;;;;;;223.73;201.70;;;;;;;9.76;100.00;101764.09;4997507;28;20482;-77
2021/10/17 08:31:39;;;;;;;214.18;192.25;;;;;;;9.74;100.00;101767.91;5003948;28;20049;-76
2021/10/17 08:34:06;;;;;;;226.82;204.43;;;;;;;9.82;100.00;101767.88;5010316;28;20057;-77
2021/10/17 08:36:32;;;;;;;228.73;205.82;;;;;;;9.75;100.00;101762.44;5001932;28;20051;-76
2021/10/17 08:38:59;;;;;;;237.20;212.50;;;;;;;10.06;100.00;101762.41;5000892;28;20178;-77
2021/10/17 08:41:26;;;;;;;259.90;233.38;;;;;;;10.10;100.00;101762.84;5002809;28;20482;-77
2021/10/17 08:43:53;;;;;;;281.92;253.70;;;;;;;10.66;100.00;101755.47;5004240;28;20120;-76
2021/10/17 08:46:21;;;;;;;259.42;234.13;;;;;;;10.69;100.00;101757.75;5005189;28;20058;-76
2021/10/17 08:48:55;;;;;;;234.20;211.38;;;;;;;10.47;100.00;101758.63;5009071;28;20450;-77
2021/10/17 08:51:24;;;;;;;221.18;199.30;;;;;;;10.26;100.00;101761.94;5002041;28;20042;-76
2021/10/17 08:53:51;;;;;;;218.50;196.65;;;;;;;10.15;100.00;101763.16;5008220;28;20049;-75
2021/10/17 08:56:18;;;;;;;229.20;205.65;;;;;;;10.27;100.00;101760.94;5000139;28;20125;-77
2021/10/17 08:58:44;;;;;;;217.95;195.85;;;;;;;10.15;100.00;101765.81;4998244;28;20046;-76
2021/10/17 09:01:13;;;;;;;226.48;203.20;;;;;;;10.27;100.00;101771.56;4998286;28;20045;-76
2021/10/17 09:03:41;;;;;;;222.32;200.07;;;;;;;10.62;100.00;101764.81;5003075;28;20050;-76
2021/10/17 09:06:18;;;;;;;223.18;200.23;;;;;;;10.46;100.00;101763.09;5002481;28;20054;-75
2021/10/17 09:08:45;;;;;;;224.90;202.20;;;;;;;10.38;100.00;101762.34;5003220;28;20042;-77
2021/10/17 09:11:12;;;;;;;226.07;202.85;;;;;;;10.45;100.00;101757.97;4997967;28;20120;-77
2021/10/17 09:14:02;;;;;;;218.60;195.63;;;;;;;10.44;100.00;101767.78;5004196;28;20057;-76
2021/10/17 09:16:29;;;;;;;216.73;194.27;;;;;;;10.44;100.00;101765.13;5004018;28;20462;-76
2021/10/17 09:19:08;;;;;;;215.02;193.23;;;;;;;10.48;100.00;101762.94;4999714;28;20502;-76
2021/10/17 09:21:34;;;;;;;213.38;191.98;;;;;;;10.74;100.00;101759.84;4998313;28;20109;-76
2021/10/17 09:24:01;;;;;;;203.77;183.13;;;;;;;10.64;100.00;101762.78;5004152;28;20115;-77
2021/10/17 09:26:28;;;;;;;189.88;170.23;;;;;;;10.49;100.00;101762.75;5003814;28;20050;-77
2021/10/17 09:28:55;;;;;;;198.23;177.45;;;;;;;10.48;100.00;101769.06;5007894;28;20061;-76
2021/10/17 09:31:22;;;;;;;207.45;186.30;;;;;;;10.62;100.00;101767.47;5000425;28;20100;-76
2021/10/17 09:33:52;;;;;;;204.32;183.63;;;;;;;10.35;100.00;101763.56;5002164;28;20058;-75
2021/10/17 09:36:26;;;;;;;212.20;190.18;;;;;;;10.36;100.00;101770.50;5006506;28;20446;-76
2021/10/17 09:38:56;;;;;;;222.75;202.98;;;;;;;10.51;100.00;101776.69;4998957;28;20123;-76
2021/10/17 09:41:31;;;;;;;215.00;195.73;;;;;;;10.37;100.00;101773.97;4995996;28;20050;-77
2021/10/17 09:44:00;;;;;;;212.50;193.75;;;;;;;10.53;100.00;101773.84;5004957;28;20181;-76
2021/10/17 09:46:27;;;;;;;233.43;214.07;;;;;;;10.49;100.00;101769.88;4998561;28;20050;-76
2021/10/17 09:48:55;;;;;;;209.73;191.45;;;;;;;10.70;100.00;101769.19;5002252;28;20064;-76
2021/10/17 09:51:26;;;;;;;191.05;173.15;;;;;;;10.60;100.00;101766.00;5004509;28;20049;-76
2021/10/17 09:53:54;;;;;;;197.98;179.25;;;;;;;10.40;100.00;101769.13;4996941;28;20077;-75
2021/10/17 09:56:40;;;;;;;197.95;180.02;;;;;;;10.73;100.00;101774.97;4994746;28;20061;-77
2021/10/17 09:59:09;;;;;;;188.82;171.63;;;;;;;10.57;100.00;101774.31;5003816;28;20052;-76
2021/10/17 10:01:37;;;;;;;195.20;178.55;;;;;;;10.40;100.00;101770.97;5004489;28;20549;-76
2021/10/17 10:04:05;;;;;;;182.27;166.00;;;;;;;10.36;100.00;101765.19;5002134;28;20058;-75
2021/10/17 10:06:34;;;;;;;187.75;170.73;;;;;;;10.23;100.00;101771.06;5001075;28;20478;-76
2021/10/17 10:09:03;;;;;;;185.50;168.35;;;;;;;10.24;100.00;101770.06;4998729;28;20042;-75
2021/10/17 10:11:31;;;;;;;215.30;196.40;;;;;;;10.20;100.00;101770.63;4998251;28;20461;-77
2021/10/17 10:14:00;;;;;;;217.77;199.15;;;;;;;10.20;100.00;101779.41;5001933;28;20046;-76
2021/10/17 10:16:28;;;;;;;225.10;204.82;;;;;;;10.25;100.00;101766.41;5003232;28;20108;-76
2021/10/17 10:18:58;;;;;;;224.00;204.25;;;;;;;10.39;100.00;101761.34;5006215;28;20112;-75
2021/10/17 10:21:25;;;;;;;221.07;201.70;;;;;;;10.51;100.00;101759.91;5002858;28;20049;-78
2021/10/17 10:23:56;;;;;;;241.05;219.00;;;;;;;10.67;100.00;101753.63;5000040;28;20565;-76
2021/10/17 10:26:24;;;;;;;371.67;280.15;;;;;;;10.71;100.00;101755.75;4998059;28;20425;-77
2021/10/17 10:28:53;;;;;;;347.67;276.25;;;;;;;11.04;100.00;101758.03;5000069;28;20104;-77
2021/10/17 10:31:42;;;;;;;313.10;279.95;;;;;;;10.93;100.00;101750.53;4997134;28;20109;-76
2021/10/17 10:34:09;;;;;;;225.07;205.13;;;;;;;10.80;100.00;101756.47;5001707;28;20054;-75
2021/10/17 10:36:39;;;;;;;273.73;247.13;;;;;;;11.43;100.00;101746.25;4997805;28;20054;-75
2021/10/17 10:39:10;;;;;;;238.48;216.55;;;;;;;11.22;100.00;101744.38;4997523;28;20050;-76
2021/10/17 10:41:53;;;;;;;224.43;202.55;;;;;;;11.20;100.00;101749.88;4999955;28;20046;-77
2021/10/17 10:44:20;;;;;;;;;;;;;;;11.31;100.00;101743.25;5004348;28;20123;-76
2021/10/17 10:46:49;;;;;;;228.82;209.52;;;;;;;11.52;100.00;101737.16;4998973;28;20004;-76
2021/10/17 10:49:42;;;;;;;209.90;191.63;;;;;;;11.70;100.00;101734.91;5000735;28;20054;-75
2021/10/17 10:52:10;;;;;;;197.50;181.13;;;;;;;11.62;100.00;101735.03;4997795;28;20054;-77
2021/10/17 10:54:38;;;;;;;202.88;186.15;;;;;;;11.72;100.00;101740.06;5004247;28;20049;-77